Time;durP1;ratioP1;P1;durP2;ratioP2;P2;SDS_P1;SDS_P2;PMS_P1;PMS_P2;Temp;Humidity;BMP_temperature;BMP_pressure;BME280_temperature;BME280_humidity;BME280_pressure;Samples;Min_cycle;Max_cycle;Signal;HPM_P1;HPM_P2
2023/11/18 00:01:46;;;;;;;14.23;6.93;;;;;;;3.60;100.00;102126.03;6271263;28;20453;-72
2023/11/18 00:04:49;;;;;;;13.82;6.40;;;;;;;3.60;100.00;102132.97;6279348;28;20045;-72
2023/11/18 00:07:50;;;;;;;14.77;6.78;;;;;;;3.56;100.00;102124.31;6279305;28;20452;-71
2023/11/18 00:10:52;;;;;;;14.68;7.57;;;;;;;3.55;100.00;102126.03;6278940;28;20464;-71
2023/11/18 00:13:53;;;;;;;11.27;6.57;;;;;;;3.52;100.00;102122.56;6270647;28;20052;-72
2023/11/18 00:16:55;;;;;;;16.35;7.07;;;;;;;3.45;100.00;102121.72;6279332;28;20099;-72
2023/11/18 00:19:58;;;;;;;12.43;6.68;;;;;;;3.40;100.00;102131.25;6281902;28;20045;-72
2023/11/18 00:22:59;;;;;;;13.32;6.65;;;;;;;3.30;100.00;102114.81;6294310;28;20040;-71
2023/11/18 00:26:00;;;;;;;14.88;6.57;;;;;;;3.24;100.00;102129.53;6270629;28;20044;-72
2023/11/18 00:29:02;;;;;;;16.13;6.18;;;;;;;3.21;100.00;102129.53;6286509;28;20045;-71
2023/11/18 00:32:04;;;;;;;13.48;6.30;;;;;;;3.22;100.00;102129.53;6270329;28;20059;-71
2023/11/18 00:35:08;;;;;;;11.35;6.63;;;;;;;3.12;100.00;102127.81;6280227;28;20064;-71
2023/11/18 00:38:10;;;;;;;12.65;6.45;;;;;;;3.10;100.00;102129.56;6270575;28;20045;-71
2023/11/18 00:41:12;;;;;;;15.85;6.70;;;;;;;3.08;100.00;102133.88;6278765;28;20056;-71
2023/11/18 00:44:14;;;;;;;13.43;6.13;;;;;;;2.97;100.00;102131.28;6278316;28;20598;-72
2023/11/18 00:47:15;;;;;;;11.07;5.32;;;;;;;2.94;100.00;102144.25;6278773;28;20048;-71
2023/11/18 00:50:18;;;;;;;10.27;5.47;;;;;;;2.99;100.00;102146.84;6278359;28;20049;-71
2023/11/18 00:53:20;;;;;;;11.45;5.55;;;;;;;3.01;100.00;102152.94;6278377;28;20056;-71
2023/11/18 00:56:21;;;;;;;18.20;7.13;;;;;;;3.05;100.00;102154.66;6277291;28;20056;-72
2023/11/18 00:59:23;;;;;;;17.52;6.88;;;;;;;3.10;100.00;102163.31;6278106;28;20045;-72
2023/11/18 01:02:24;;;;;;;11.68;5.93;;;;;;;3.15;100.00;102165.91;6278042;28;20060;-71
2023/11/18 01:05:27;;;;;;;15.57;7.10;;;;;;;3.03;100.00;102166.75;6277946;28;20056;-71
2023/11/18 01:08:28;;;;;;;17.30;7.45;;;;;;;2.91;100.00;102175.44;6277976;28;20053;-71
2023/11/18 01:11:29;;;;;;;19.50;7.68;;;;;;;2.88;100.00;102174.56;6285863;28;20045;-71
2023/11/18 01:14:31;;;;;;;12.43;6.10;;;;;;;2.96;100.00;102171.09;6269339;28;20048;-72
2023/11/18 01:17:32;;;;;;;19.17;7.32;;;;;;;3.05;100.00;102175.44;6277704;28;20044;-71
2023/11/18 01:20:35;;;;;;;16.40;6.72;;;;;;;3.16;100.00;102186.69;6277847;28;20060;-72
2023/11/18 01:23:37;;;;;;;18.67;8.10;;;;;;;3.22;100.00;102184.06;6277434;28;20350;-71
2023/11/18 01:26:38;;;;;;;16.92;8.57;;;;;;;3.30;100.00;102189.28;6277825;28;20053;-72
2023/11/18 01:29:40;;;;;;;17.95;8.82;;;;;;;3.37;100.00;102193.63;6277603;28;20053;-71
2023/11/18 01:32:41;;;;;;;21.02;9.32;;;;;;;3.25;100.00;102198.81;6277339;28;20056;-72
2023/11/18 01:35:44;;;;;;;21.58;8.82;;;;;;;3.29;100.00;102198.81;6277479;28;20064;-72
2023/11/18 01:38:46;;;;;;;23.80;10.57;;;;;;;3.34;100.00;102197.94;6277048;28;20053;-72
2023/11/18 01:41:49;;;;;;;22.33;10.63;;;;;;;3.40;100.00;102204.00;6277307;28;20056;-71
2023/11/18 01:44:51;;;;;;;23.60;9.60;;;;;;;3.49;100.00;102200.53;6276979;28;20076;-72
2023/11/18 01:47:52;;;;;;;24.00;9.90;;;;;;;3.52;100.00;102206.59;6277242;28;20067;-71
2023/11/18 01:50:57;;;;;;;22.58;9.35;;;;;;;3.55;100.00;102200.56;6276942;28;20049;-71
2023/11/18 01:54:00;;;;;;;20.77;9.05;;;;;;;3.55;100.00;102198.81;6276911;28;20106;-72
2023/11/18 01:57:05;;;;;;;25.33;10.27;;;;;;;3.61;100.00;102204.88;6276890;28;20060;-72
2023/11/18 02:00:11;;;;;;;28.42;10.65;;;;;;;3.63;100.00;102197.91;6276687;28;20053;-71
2023/11/18 02:03:12;;;;;;;30.27;11.65;;;;;;;3.67;100.00;102202.25;6276512;28;20405;-71
2023/11/18 02:06:16;;;;;;;21.52;9.65;;;;;;;3.73;100.00;102195.31;6276475;28;20057;-72
2023/11/18 02:09:18;;;;;;;28.38;10.13;;;;;;;3.78;100.00;102193.59;6276492;28;20464;-71
2023/11/18 02:12:27;;;;;;;26.48;10.95;;;;;;;3.77;100.00;102198.75;6276516;28;20361;-72
2023/11/18 02:15:31;;;;;;;23.77;9.50;;;;;;;3.79;100.00;102190.09;6273901;28;20052;-71
2023/11/18 02:18:33;;;;;;;22.00;10.93;;;;;;;3.82;100.00;102199.66;6251574;28;20053;-72
2023/11/18 02:21:37;;;;;;;27.98;10.48;;;;;;;3.83;100.00;102195.31;6275201;28;20056;-71
2023/11/18 02:24:41;;;;;;;32.30;10.93;;;;;;;3.84;100.00;102190.09;6274694;28;20049;-72
2023/11/18 02:27:43;;;;;;;26.95;10.30;;;;;;;3.77;100.00;102186.66;6270977;28;20051;-71
2023/11/18 02:30:46;;;;;;;22.63;9.60;;;;;;;3.74;100.00;102189.25;6276004;28;20453;-72
2023/11/18 02:33:54;;;;;;;30.00;9.75;;;;;;;3.68;100.00;102204.88;6275924;28;20076;-72
2023/11/18 02:37:00;;;;;;;33.03;10.32;;;;;;;3.65;100.00;102194.47;6275791;28;20053;-71
2023/11/18 02:40:08;;;;;;;25.77;9.40;;;;;;;3.71;100.00;102193.59;6279133;28;20048;-72
2023/11/18 02:43:11;;;;;;;28.67;9.85;;;;;;;3.72;100.00;102187.50;6274433;28;20358;-72
2023/11/18 02:46:13;;;;;;;28.83;10.90;;;;;;;3.76;100.00;102187.50;6251108;28;20045;-72
2023/11/18 02:49:15;;;;;;;24.63;9.93;;;;;;;3.75;100.00;102179.72;6250958;28;20052;-72
2023/11/18 02:52:16;;;;;;;25.17;9.88;;;;;;;3.78;100.00;102177.97;6250840;28;20057;-71
2023/11/18 02:55:18;;;;;;;30.65;10.18;;;;;;;3.78;100.00;102171.91;6250696;28;20080;-71
2023/11/18 02:58:21;;;;;;;22.38;9.77;;;;;;;3.79;100.00;102174.50;6251088;28;20056;-71
2023/11/18 03:01:24;;;;;;;17.08;8.15;;;;;;;3.86;100.00;102177.06;6250793;28;20059;-72
2023/11/18 03:04:26;;;;;;;25.42;10.48;;;;;;;3.91;100.00;102175.34;6250741;28;20054;-72
2023/11/18 03:07:27;;;;;;;21.65;9.63;;;;;;;3.94;100.00;102184.00;6262923;28;20060;-71
2023/11/18 03:10:29;;;;;;;28.23;10.27;;;;;;;3.92;100.00;102185.75;6270062;28;20496;-71
2023/11/18 03:13:32;;;;;;;26.05;9.52;;;;;;;4.00;100.00;102175.34;6275277;28;20132;-71
2023/11/18 03:16:34;;;;;;;22.02;10.00;;;;;;;4.06;100.00;102181.38;6275157;28;20453;-71
2023/11/18 03:19:35;;;;;;;27.05;9.68;;;;;;;4.12;100.00;102185.66;6274904;28;20057;-72
2023/11/18 03:22:37;;;;;;;25.90;9.32;;;;;;;4.14;100.00;102196.09;6274919;28;20048;-71
2023/11/18 03:25:39;;;;;;;21.60;10.13;;;;;;;4.14;100.00;102196.97;6275121;28;20052;-71
2023/11/18 03:28:42;;;;;;;25.08;10.27;;;;;;;4.18;100.00;102205.59;6274334;28;20057;-71
2023/11/18 03:31:44;;;;;;;27.48;11.57;;;;;;;4.20;100.00;102198.66;6274980;28;20369;-71
2023/11/18 03:34:45;;;;;;;31.05;12.85;;;;;;;4.22;100.00;102202.97;6274672;28;20049;-72
2023/11/18 03:37:47;;;;;;;35.25;12.45;;;;;;;4.18;100.00;102200.38;6274910;28;20056;-72
2023/11/18 03:40:49;;;;;;;40.38;13.68;;;;;;;4.16;100.00;102197.81;6275093;28;20053;-71
2023/11/18 03:43:51;;;;;;;36.83;13.13;;;;;;;4.22;100.00;102191.69;6274803;28;20052;-71
2023/11/18 03:46:53;;;;;;;33.88;12.70;;;;;;;4.26;100.00;102189.09;6274883;28;20060;-72
2023/11/18 03:49:54;;;;;;;42.67;13.55;;;;;;;4.28;100.00;102189.09;6275017;28;20053;-71
2023/11/18 03:52:56;;;;;;;29.92;12.15;;;;;;;4.29;100.00;102185.63;6274610;28;20084;-72
2023/11/18 03:55:57;;;;;;;27.85;10.90;;;;;;;4.34;100.00;102189.06;6274824;28;20040;-72
2023/11/18 03:59:00;;;;;;;31.25;12.43;;;;;;;4.36;100.00;102186.44;6274845;28;20045;-72
2023/11/18 04:02:01;;;;;;;36.40;12.65;;;;;;;4.36;100.00;102183.84;6282293;28;20041;-72
2023/11/18 04:05:03;;;;;;;34.67;12.43;;;;;;;4.35;100.00;102182.97;6266405;28;20441;-71
2023/11/18 04:08:06;;;;;;;24.75;12.07;;;;;;;4.39;100.00;102178.63;6271060;28;20483;-71
2023/11/18 04:11:07;;;;;;;27.48;11.07;;;;;;;4.41;100.00;102179.50;6262409;28;20045;-72
2023/11/18 04:14:10;;;;;;;30.48;11.95;;;;;;;4.41;100.00;102177.75;6266404;28;20037;-71
2023/11/18 04:17:12;;;;;;;33.47;11.55;;;;;;;4.41;100.00;102177.75;6266214;28;20480;-71
2023/11/18 04:20:15;;;;;;;28.15;11.45;;;;;;;4.41;100.00;102175.16;6263004;28;20056;-71
2023/11/18 04:23:17;;;;;;;31.60;12.65;;;;;;;4.42;100.00;102176.88;6266178;28;20045;-71
2023/11/18 04:26:19;;;;;;;28.25;11.18;;;;;;;4.43;100.00;102173.41;6272511;28;20187;-71
2023/11/18 04:29:23;;;;;;;25.92;12.00;;;;;;;4.42;100.00;102171.69;6268566;28;20053;-72
2023/11/18 04:32:24;;;;;;;32.85;11.82;;;;;;;4.41;100.00;102172.56;6265565;28;20308;-71
2023/11/18 04:35:25;;;;;;;30.30;10.65;;;;;;;4.41;100.00;102167.34;6269338;28;20057;-71
2023/11/18 04:38:27;;;;;;;35.30;11.98;;;;;;;4.38;100.00;102162.16;6300607;22;20049;-79
2023/11/18 04:41:29;;;;;;;29.52;12.75;;;;;;;4.38;100.00;102161.28;6268746;28;20088;-79
2023/11/18 04:44:32;;;;;;;26.05;10.98;;;;;;;4.38;100.00;102156.94;6261655;28;20048;-79
2023/11/18 04:47:33;;;;;;;32.88;13.38;;;;;;;4.35;100.00;102156.94;6266592;28;20470;-77
2023/11/18 04:50:35;;;;;;;48.00;14.60;;;;;;;4.36;100.00;102156.09;6253718;28;20049;-77
2023/11/18 04:53:36;;;;;;;33.40;12.20;;;;;;;4.39;100.00;102155.19;6253731;28;20190;-77
2023/11/18 04:56:38;;;;;;;28.88;12.20;;;;;;;4.43;100.00;102149.13;6253730;28;20053;-79
2023/11/18 04:59:41;;;;;;;28.95;12.95;;;;;;;4.48;100.00;102157.75;6253500;28;20050;-80
2023/11/18 05:02:42;;;;;;;32.95;12.90;;;;;;;4.51;100.00;102169.03;6253436;28;20053;-80
2023/11/18 05:05:44;;;;;;;29.92;12.82;;;;;;;4.54;100.00;102160.31;6253178;28;20346;-79
2023/11/18 05:08:45;;;;;;;28.80;12.52;;;;;;;4.56;100.00;102161.19;6267404;28;20067;-79
2023/11/18 05:11:47;;;;;;;31.75;13.82;;;;;;;4.55;100.00;102149.06;6277911;28;20060;-79
2023/11/18 05:14:50;;;;;;;27.83;11.95;;;;;;;4.57;100.00;102148.16;6277758;28;20411;-79
2023/11/18 05:17:51;;;;;;;30.25;13.20;;;;;;;4.60;100.00;102141.22;6277878;28;20081;-79
2023/11/18 05:20:54;;;;;;;28.80;11.55;;;;;;;4.61;100.00;102135.13;6278058;28;20049;-79
2023/11/18 05:23:55;;;;;;;27.75;12.70;;;;;;;4.62;100.00;102137.72;6277767;28;20060;-79
2023/11/18 05:26:57;;;;;;;38.53;12.40;;;;;;;4.64;100.00;102137.72;6277895;28;20441;-79
2023/11/18 05:29:59;;;;;;;33.08;11.98;;;;;;;4.65;100.00;102129.91;6277698;28;20476;-79
2023/11/18 05:33:03;;;;;;;27.75;12.25;;;;;;;4.67;100.00;102135.94;6277323;28;20049;-79
2023/11/18 05:36:06;;;;;;;30.50;12.63;;;;;;;4.65;100.00;102136.84;6277427;28;20049;-79
2023/11/18 05:39:09;;;;;;;30.65;13.65;;;;;;;4.65;100.00;102129.03;6277337;28;20045;-79
2023/11/18 05:42:10;;;;;;;36.90;13.23;;;;;;;4.62;100.00;102118.63;6276919;28;20057;-79
2023/11/18 05:45:18;;;;;;;35.13;12.88;;;;;;;4.63;100.00;102117.75;6277390;28;20045;-79
2023/11/18 05:48:19;;;;;;;33.08;12.50;;;;;;;4.61;100.00;102120.38;6277341;28;20056;-79
2023/11/18 05:51:22;;;;;;;26.98;12.13;;;;;;;4.53;100.00;102115.19;6277104;28;20048;-79
2023/11/18 05:54:24;;;;;;;33.75;14.07;;;;;;;4.57;100.00;102118.66;6276841;28;20127;-79
2023/11/18 05:57:27;;;;;;;37.13;14.20;;;;;;;4.56;100.00;102116.94;6277011;28;20059;-79
2023/11/18 06:00:30;;;;;;;44.22;16.02;;;;;;;4.46;100.00;102110.94;6277857;28;20190;-79
2023/11/18 06:03:32;;;;;;;41.97;15.07;;;;;;;4.47;100.00;102115.25;6268091;28;20060;-79
2023/11/18 06:06:33;;;;;;;43.35;15.68;;;;;;;4.44;100.00;102120.47;6276933;28;20045;-78
2023/11/18 06:09:34;;;;;;;40.45;13.68;;;;;;;4.42;100.00;102122.22;6276852;28;20045;-79
2023/11/18 06:12:37;;;;;;;42.95;15.18;;;;;;;4.40;100.00;102126.56;6279829;28;20045;-80
2023/11/18 06:15:39;;;;;;;44.63;15.77;;;;;;;4.47;100.00;102130.00;6270293;28;20059;-79
2023/11/18 06:18:44;;;;;;;40.22;15.00;;;;;;;4.43;100.00;102118.75;6267992;28;20045;-79
2023/11/18 06:21:45;;;;;;;46.15;15.32;;;;;;;4.39;100.00;102129.19;6276504;28;20059;-79
2023/11/18 06:24:47;;;;;;;40.33;14.73;;;;;;;4.40;100.00;102130.91;6269383;28;20447;-79
2023/11/18 06:27:50;;;;;;;43.60;15.68;;;;;;;4.42;100.00;102134.38;6262553;28;20334;-80
2023/11/18 06:30:52;;;;;;;50.42;16.63;;;;;;;4.39;100.00;102126.56;6264118;28;20087;-79
2023/11/18 06:33:54;;;;;;;56.70;16.70;;;;;;;4.36;100.00;102127.47;6261529;28;20049;-80
2023/11/18 06:36:56;;;;;;;47.33;16.30;;;;;;;4.38;100.00;102127.47;6266964;28;20060;-77
2023/11/18 06:39:57;;;;;;;40.47;14.43;;;;;;;4.37;100.00;102133.53;6262811;28;20045;-77
2023/11/18 06:43:02;;;;;;;49.10;16.05;;;;;;;4.35;100.00;102130.94;6263342;28;20054;-77
2023/11/18 06:46:04;;;;;;;40.22;14.68;;;;;;;4.38;100.00;102145.69;6266802;28;20096;-77
2023/11/18 06:49:07;;;;;;;57.88;17.15;;;;;;;4.41;100.00;102151.75;6264425;28;20055;-77
2023/11/18 06:52:12;;;;;;;52.72;16.10;;;;;;;4.39;100.00;102150.00;6257239;28;20060;-78
2023/11/18 06:55:15;;;;;;;44.58;15.07;;;;;;;4.40;100.00;102149.13;6251079;28;20110;-78
2023/11/18 06:58:16;;;;;;;47.15;15.52;;;;;;;4.41;100.00;102146.53;6250706;28;20046;-78
2023/11/18 07:01:19;;;;;;;47.05;15.55;;;;;;;4.49;100.00;102146.47;6250805;28;20045;-78
2023/11/18 07:04:20;;;;;;;46.83;15.40;;;;;;;4.47;100.00;102146.50;6250368;28;20345;-78
2023/11/18 07:07:22;;;;;;;51.03;17.83;;;;;;;4.50;100.00;102146.47;6251204;28;20433;-78
2023/11/18 07:10:23;;;;;;;48.45;17.73;;;;;;;4.53;100.00;102150.78;6270551;28;20060;-78
2023/11/18 07:13:24;;;;;;;46.10;16.17;;;;;;;4.55;100.00;102154.25;6272332;28;20061;-78
2023/11/18 07:16:28;;;;;;;50.97;16.52;;;;;;;4.60;100.00;102149.88;6265573;28;20041;-79
2023/11/18 07:19:29;;;;;;;48.45;14.50;;;;;;;4.63;100.00;102141.19;6266748;28;20052;-78
2023/11/18 07:22:30;;;;;;;46.97;15.80;;;;;;;4.67;100.00;102137.69;6258908;28;20059;-79
2023/11/18 07:25:33;;;;;;;45.63;14.63;;;;;;;4.66;100.00;102138.56;6263660;28;20064;-78
2023/11/18 07:28:35;;;;;;;48.95;15.23;;;;;;;4.67;100.00;102142.91;6264096;28;20142;-78
2023/11/18 07:31:38;;;;;;;52.38;16.35;;;;;;;4.66;100.00;102144.63;6262154;28;20046;-78
2023/11/18 07:34:41;;;;;;;39.53;15.93;;;;;;;4.68;100.00;102147.22;6263558;28;20041;-78
2023/11/18 07:37:42;;;;;;;41.80;13.63;;;;;;;4.69;100.00;102139.41;6260475;28;20049;-78
2023/11/18 07:40:45;;;;;;;41.92;15.13;;;;;;;4.72;100.00;102130.69;6263221;28;20056;-78
2023/11/18 07:43:47;;;;;;;38.72;15.13;;;;;;;4.73;100.00;102146.34;6261727;28;20136;-79
2023/11/18 07:46:50;;;;;;;45.72;16.55;;;;;;;4.72;100.00;102154.13;6266545;28;20049;-73
2023/11/18 07:49:51;;;;;;;49.22;16.88;;;;;;;4.69;100.00;102152.44;6275004;28;20045;-73
2023/11/18 07:52:52;;;;;;;50.08;17.48;;;;;;;4.70;100.00;102143.75;6274891;28;20049;-73
2023/11/18 07:55:54;;;;;;;46.75;17.10;;;;;;;4.71;100.00;102142.84;6274875;28;20045;-73
2023/11/18 07:58:55;;;;;;;44.22;15.73;;;;;;;4.72;100.00;102134.16;6274985;28;20049;-73
2023/11/18 08:01:58;;;;;;;47.13;15.73;;;;;;;4.76;100.00;102130.66;6274558;28;20476;-74
2023/11/18 08:05:00;;;;;;;51.17;18.50;;;;;;;4.69;100.00;102129.00;6276544;28;20056;-75
2023/11/18 08:08:01;;;;;;;40.28;15.98;;;;;;;4.71;100.00;102123.78;6279427;28;20115;-73
2023/11/18 08:11:03;;;;;;;48.95;16.25;;;;;;;4.74;100.00;102114.22;6279399;28;20056;-74
2023/11/18 08:14:04;;;;;;;44.78;16.42;;;;;;;4.70;100.00;102109.88;6268506;28;20068;-72
2023/11/18 08:17:07;;;;;;;44.45;15.93;;;;;;;4.75;100.00;102104.66;6254514;28;20080;-73
2023/11/18 08:20:13;;;;;;;38.03;15.00;;;;;;;4.77;100.00;102108.13;6254576;28;20049;-72
2023/11/18 08:23:15;;;;;;;43.63;15.38;;;;;;;4.79;100.00;102108.97;6256309;28;20655;-73
2023/11/18 08:26:16;;;;;;;36.88;13.57;;;;;;;4.87;100.00;102109.78;6271012;28;20046;-73
2023/11/18 08:29:17;;;;;;;44.70;14.90;;;;;;;4.95;100.00;102113.19;6286249;28;20059;-73
2023/11/18 08:32:20;;;;;;;41.92;16.70;;;;;;;4.97;100.00;102098.41;6270670;28;20057;-75
2023/11/18 08:35:22;;;;;;;44.80;16.25;;;;;;;5.04;100.00;102107.91;6278998;28;20060;-72
2023/11/18 08:38:24;;;;;;;46.72;16.25;;;;;;;5.06;100.00;102111.34;6278413;28;20076;-74
2023/11/18 08:41:25;;;;;;;42.65;16.30;;;;;;;5.10;100.00;102101.78;6278880;28;20142;-74
2023/11/18 08:44:27;;;;;;;43.78;15.88;;;;;;;5.12;100.00;102120.84;6276617;28;20052;-74
2023/11/18 08:47:31;;;;;;;47.05;15.90;;;;;;;5.19;100.00;102112.09;6277857;28;20571;-74
2023/11/18 08:50:33;;;;;;;44.22;15.95;;;;;;;5.23;100.00;102105.13;6270137;28;20053;-76
2023/11/18 08:53:40;;;;;;;47.15;14.73;;;;;;;5.30;100.00;102102.44;6278588;28;20056;-74
2023/11/18 08:56:42;;;;;;;36.78;14.10;;;;;;;5.35;100.00;102098.03;6278370;28;20107;-74
2023/11/18 08:59:44;;;;;;;46.40;15.98;;;;;;;5.36;100.00;102093.72;6276070;28;20092;-74
2023/11/18 09:02:47;;;;;;;45.95;16.15;;;;;;;5.40;100.00;102099.72;6274375;28;20045;-74
2023/11/18 09:05:56;;;;;;;45.22;15.60;;;;;;;5.38;100.00;102091.09;6271457;28;20484;-75
2023/11/18 09:08:57;;;;;;;;;;;;;;;5.40;100.00;102095.38;6292325;28;20128;-79
2023/11/18 09:11:59;;;;;;;39.08;14.40;;;;;;;5.46;100.00;102097.09;6284494;28;19935;-74
2023/11/18 09:15:03;;;;;;;44.63;15.65;;;;;;;5.41;100.00;102096.28;6284084;28;20464;-74
2023/11/18 09:18:09;;;;;;;36.10;15.18;;;;;;;5.33;100.00;102092.00;6277533;28;20049;-74
2023/11/18 09:21:14;;;;;;;36.90;16.00;;;;;;;5.36;100.00;102091.09;6269851;28;20044;-74
2023/11/18 09:24:19;;;;;;;46.47;15.45;;;;;;;5.30;100.00;102084.19;6282591;28;20048;-74
2023/11/18 09:27:21;;;;;;;33.70;14.27;;;;;;;5.32;100.00;102077.22;6284207;28;20049;-74
2023/11/18 09:30:24;;;;;;;41.63;16.17;;;;;;;5.31;100.00;102072.91;6270415;28;20048;-74
2023/11/18 09:33:32;;;;;;;39.05;15.07;;;;;;;5.29;100.00;102069.44;6277615;28;20059;-74
2023/11/18 09:36:34;;;;;;;37.72;15.68;;;;;;;5.39;100.00;102057.16;6284669;28;20048;-73
2023/11/18 09:39:38;;;;;;;37.95;16.20;;;;;;;5.54;100.00;102064.84;6275855;28;20045;-74
2023/11/18 09:42:40;;;;;;;44.40;15.95;;;;;;;5.63;100.00;102062.97;6275275;28;20052;-74
2023/11/18 09:45:43;;;;;;;45.35;15.98;;;;;;;5.72;100.00;102071.59;6288305;28;20041;-79
2023/11/18 09:48:47;;;;;;;33.78;13.98;;;;;;;5.75;100.00;102058.50;6285343;28;20048;-80
2023/11/18 09:51:49;;;;;;;39.17;14.55;;;;;;;5.77;100.00;102056.75;6269036;28;20441;-82
2023/11/18 09:55:02;;;;;;;51.00;16.73;;;;;;;5.78;100.00;102041.94;6271146;28;20334;-81
2023/11/18 09:58:08;;;;;;;39.40;14.90;;;;;;;5.85;100.00;102048.78;6279699;28;20469;-75
2023/11/18 10:01:18;;;;;;;39.30;13.98;;;;;;;5.96;100.00;102044.34;6287237;28;20071;-77
2023/11/18 10:04:21;;;;;;;32.85;14.27;;;;;;;6.02;100.00;102049.47;6268646;28;20114;-75
2023/11/18 10:07:26;;;;;;;42.88;15.10;;;;;;;6.05;100.00;102051.19;6276300;28;20056;-75
2023/11/18 10:10:35;;;;;;;39.80;16.20;;;;;;;6.06;100.00;102042.47;6276881;28;20049;-75
2023/11/18 10:13:40;;;;;;;38.88;14.60;;;;;;;6.11;100.00;102045.88;6280615;28;20127;-73
2023/11/18 10:16:42;;;;;;;43.55;14.80;;;;;;;6.20;100.00;102044.88;6286152;28;20399;-81
2023/11/18 10:19:56;;;;;;;46.90;15.57;;;;;;;6.25;100.00;102030.88;6277908;28;20505;-80
2023/11/18 10:23:09;;;;;;;38.97;13.93;;;;;;;6.30;100.00;102026.44;6274280;28;20052;-83
2023/11/18 10:26:11;;;;;;;38.70;13.43;;;;;;;6.32;100.00;102016.00;6267444;28;20348;-77
2023/11/18 10:29:13;;;;;;;41.10;14.00;;;;;;;6.32;100.00;102009.03;6275375;28;20439;-81
2023/11/18 10:32:19;;;;;;;35.97;13.20;;;;;;;6.29;100.00;102008.22;6275758;28;20251;-71
2023/11/18 10:35:22;;;;;;;41.28;12.35;;;;;;;6.37;100.00;102005.50;6269125;28;20050;-75
2023/11/18 10:38:26;;;;;;;39.22;12.85;;;;;;;6.43;100.00;102005.38;6273449;22;20053;-70
2023/11/18 10:41:30;;;;;;;32.08;12.23;;;;;;;6.41;100.00;102005.41;6250540;28;20056;-71
2023/11/18 10:44:32;;;;;;;33.13;11.40;;;;;;;6.44;100.00;101991.44;6245014;28;20077;-72
2023/11/18 10:47:34;;;;;;;33.90;12.23;;;;;;;6.39;100.00;101980.22;6238465;28;20053;-73
2023/11/18 10:50:38;;;;;;;27.80;9.57;;;;;;;6.39;100.00;101974.97;6236960;28;20056;-72
2023/11/18 10:53:42;;;;;;;30.08;10.90;;;;;;;6.42;100.00;101962.75;6243159;28;20132;-72
2023/11/18 10:56:47;;;;;;;24.13;9.73;;;;;;;6.53;100.00;101959.94;6238393;28;20042;-76
2023/11/18 11:00:12;;;;;;;32.92;11.18;;;;;;;6.65;100.00;101970.19;6241287;28;20331;-72
2023/11/18 11:03:14;;;;;;;29.70;10.13;;;;;;;6.71;100.00;101959.63;6241262;28;20366;-72
2023/11/18 11:06:18;;;;;;;28.58;11.50;;;;;;;6.76;100.00;101957.78;6242021;28;20046;-72
2023/11/18 11:09:24;;;;;;;25.83;9.68;;;;;;;6.82;100.00;101947.25;6250748;28;20064;-71
2023/11/18 11:12:29;;;;;;;38.75;11.95;;;;;;;6.82;100.00;101942.03;6250351;28;20468;-71
2023/11/18 11:15:32;;;;;;;37.45;12.70;;;;;;;6.86;100.00;101929.78;6249022;28;20057;-74
2023/11/18 11:18:38;;;;;;;25.80;8.88;;;;;;;6.92;100.00;101927.03;6237762;28;20064;-71
2023/11/18 11:21:53;;;;;;;29.25;10.98;;;;;;;6.93;100.00;101912.22;6240194;28;20046;-72
2023/11/18 11:25:11;;;;;;;35.13;10.65;;;;;;;7.00;100.00;101917.28;6248884;28;20057;-72
2023/11/18 11:28:19;;;;;;;28.40;9.82;;;;;;;6.89;100.00;101900.94;6242058;28;20072;-72
2023/11/18 11:31:22;;;;;;;34.87;10.57;;;;;;;6.85;100.00;101899.28;6250661;28;20092;-72
2023/11/18 11:34:28;;;;;;;24.02;9.30;;;;;;;6.83;100.00;101896.72;6248948;28;20288;-72
2023/11/18 11:37:34;;;;;;;29.50;9.32;;;;;;;6.77;100.00;101909.91;6235364;28;20153;-72
2023/11/18 11:40:37;;;;;;;31.90;7.82;;;;;;;6.76;100.00;101908.16;6250452;28;20472;-71
2023/11/18 11:43:40;;;;;;;29.77;9.60;;;;;;;6.77;100.00;101901.22;6254758;28;20131;-72
2023/11/18 11:46:43;;;;;;;22.55;8.18;;;;;;;6.75;100.00;101897.75;6249957;28;20041;-72
2023/11/18 11:49:55;;;;;;;17.85;7.28;;;;;;;6.75;100.00;101882.06;6252379;28;20074;-72
2023/11/18 11:53:07;;;;;;;33.30;9.25;;;;;;;6.79;100.00;101860.22;6252105;28;20121;-72
2023/11/18 11:56:13;;;;;;;25.90;8.48;;;;;;;6.85;100.00;101865.31;6245232;28;20447;-72
2023/11/18 11:59:16;;;;;;;26.00;7.50;;;;;;;6.82;100.00;101858.41;6251629;28;20353;-72
2023/11/18 12:02:18;;;;;;;25.08;7.90;;;;;;;6.80;100.00;101846.25;6244064;28;20049;-72
2023/11/18 12:05:20;;;;;;;22.95;7.43;;;;;;;6.79;100.00;101852.38;6248207;28;20064;-72
2023/11/18 12:08:23;;;;;;;19.42;6.80;;;;;;;6.83;100.00;101852.28;6248593;28;20458;-72
2023/11/18 12:11:27;;;;;;;20.95;7.00;;;;;;;6.87;100.00;101850.47;6251615;28;20053;-71
2023/11/18 12:14:40;;;;;;;23.48;7.82;;;;;;;7.01;100.00;101850.19;6247890;28;20437;-72
2023/11/18 12:18:12;;;;;;;21.80;7.72;;;;;;;6.92;100.00;101847.78;6246068;28;20361;-72
2023/11/18 12:21:53;;;;;;;17.33;6.63;;;;;;;6.89;100.00;101847.81;6254417;28;20068;-71
2023/11/18 12:25:33;;;;;;;22.88;6.85;;;;;;;6.88;100.00;101840.88;6254228;28;20096;-73
2023/11/18 12:28:38;;;;;;;21.52;8.07;;;;;;;6.85;100.00;101829.59;6158840;28;20159;-72
2023/11/18 12:31:42;;;;;;;21.77;6.53;;;;;;;6.82;100.00;101823.59;6254140;28;20053;-72
2023/11/18 12:34:51;;;;;;;17.77;7.15;;;;;;;6.81;100.00;101832.31;6245294;28;20045;-71
2023/11/18 12:38:28;;;;;;;24.38;7.28;;;;;;;6.81;100.00;101845.34;6240552;28;21929;-71
2023/11/18 12:41:37;;;;;;;21.10;6.75;;;;;;;6.76;100.00;101837.63;6248154;28;20052;-71
2023/11/18 12:45:02;;;;;;;19.17;6.80;;;;;;;6.76;100.00;101835.00;6244313;28;20068;-73
2023/11/18 12:48:11;;;;;;;20.13;7.28;;;;;;;6.73;100.00;101831.63;6243045;28;20418;-73
2023/11/18 12:51:19;;;;;;;;;;;;;;;6.66;100.00;101825.63;6238695;28;20072;-73
2023/11/18 12:54:21;;;;;;;17.67;7.07;;;;;;;6.71;100.00;101828.16;6235245;28;20015;-76
2023/11/18 12:57:31;;;;;;;19.35;7.05;;;;;;;6.70;100.00;101826.44;6241571;28;20351;-73
2023/11/18 13:00:35;;;;;;;18.08;6.43;;;;;;;6.71;100.00;101821.19;6244742;28;20045;-73
2023/11/18 13:03:37;;;;;;;16.45;6.45;;;;;;;6.67;100.00;101810.81;6251293;28;20343;-73
2023/11/18 13:06:38;;;;;;;15.60;6.50;;;;;;;6.64;100.00;101811.75;6248384;28;20041;-71
2023/11/18 13:09:42;;;;;;;17.90;5.70;;;;;;;6.66;100.00;101819.56;6245955;28;20052;-71
2023/11/18 13:12:46;;;;;;;17.20;6.10;;;;;;;6.61;100.00;101815.28;6245188;28;20357;-71
2023/11/18 13:15:50;;;;;;;15.68;6.03;;;;;;;6.60;100.00;101815.31;6242798;28;20121;-71
2023/11/18 13:18:53;;;;;;;12.75;6.03;;;;;;;6.67;100.00;101818.66;6246227;28;20053;-71
2023/11/18 13:21:59;;;;;;;15.75;6.35;;;;;;;6.68;100.00;101815.19;6244318;28;20050;-73
2023/11/18 13:25:01;;;;;;;15.68;5.80;;;;;;;6.62;100.00;101805.69;6248512;28;20053;-71
2023/11/18 13:28:05;;;;;;;19.45;6.97;;;;;;;6.57;100.00;101790.13;6244717;28;20041;-72
2023/11/18 13:31:09;;;;;;;16.00;6.45;;;;;;;6.57;100.00;101781.41;6244504;28;20147;-72
2023/11/18 13:34:11;;;;;;;17.85;5.55;;;;;;;6.56;100.00;101772.72;6238070;28;20131;-72
2023/11/18 13:37:16;;;;;;;18.92;5.80;;;;;;;6.53;100.00;101757.13;6246914;28;20048;-71
2023/11/18 13:40:18;;;;;;;16.17;6.05;;;;;;;6.54;100.00;101737.06;6244478;28;20049;-71
2023/11/18 13:43:22;;;;;;;11.50;5.72;;;;;;;6.49;100.00;101729.34;6241961;28;20053;-72
2023/11/18 13:46:25;;;;;;;14.13;5.85;;;;;;;6.50;100.00;101728.47;6248578;28;20446;-72
2023/11/18 13:49:29;;;;;;;17.48;5.82;;;;;;;6.49;100.00;101716.28;6241790;28;20049;-72
2023/11/18 13:52:30;;;;;;;12.73;5.57;;;;;;;6.46;100.00;101721.59;6244253;28;20049;-72
2023/11/18 13:55:32;;;;;;;13.50;5.40;;;;;;;6.46;100.00;101715.50;6240051;28;20366;-72
2023/11/18 13:58:34;;;;;;;13.85;5.40;;;;;;;6.45;100.00;101722.50;6240170;28;20042;-72